sensor_id;sensor_type;location;lat;lon;timestamp;P1;durP1;ratioP1;P2;durP2;ratioP2
70228;SDS011;57617;51.988;5.854;2022-12-18T00:00:44;90.97;;;25.80;;
70228;SDS011;57617;51.988;5.854;2022-12-18T00:03:11;93.13;;;26.73;;
70228;SDS011;57617;51.988;5.854;2022-12-18T00:05:37;93.97;;;26.83;;
70228;SDS011;57617;51.988;5.854;2022-12-18T00:08:02;90.80;;;26.77;;
70228;SDS011;57617;51.988;5.854;2022-12-18T00:10:28;86.60;;;25.73;;
70228;SDS011;57617;51.988;5.854;2022-12-18T00:12:54;91.77;;;25.73;;
70228;SDS011;57617;51.988;5.854;2022-12-18T00:15:19;88.47;;;26.80;;
70228;SDS011;57617;51.988;5.854;2022-12-18T00:17:44;84.73;;;25.40;;
70228;SDS011;57617;51.988;5.854;2022-12-18T00:20:10;86.33;;;27.63;;
70228;SDS011;57617;51.988;5.854;2022-12-18T00:22:35;86.00;;;28.17;;
70228;SDS011;57617;51.988;5.854;2022-12-18T00:25:00;86.43;;;27.50;;
70228;SDS011;57617;51.988;5.854;2022-12-18T00:27:26;90.33;;;26.13;;
70228;SDS011;57617;51.988;5.854;2022-12-18T00:29:51;80.47;;;26.20;;
70228;SDS011;57617;51.988;5.854;2022-12-18T00:32:16;81.20;;;26.87;;
70228;SDS011;57617;51.988;5.854;2022-12-18T00:34:41;75.37;;;24.33;;
70228;SDS011;57617;51.988;5.854;2022-12-18T00:37:07;78.07;;;26.33;;
70228;SDS011;57617;51.988;5.854;2022-12-18T00:39:32;77.90;;;25.17;;
70228;SDS011;57617;51.988;5.854;2022-12-18T00:41:58;76.73;;;24.57;;
70228;SDS011;57617;51.988;5.854;2022-12-18T00:44:41;77.53;;;25.10;;
70228;SDS011;57617;51.988;5.854;2022-12-18T00:47:06;72.93;;;25.63;;
70228;SDS011;57617;51.988;5.854;2022-12-18T00:49:32;75.27;;;25.67;;
70228;SDS011;57617;51.988;5.854;2022-12-18T00:51:57;77.47;;;25.63;;
70228;SDS011;57617;51.988;5.854;2022-12-18T00:54:22;80.10;;;25.77;;
70228;SDS011;57617;51.988;5.854;2022-12-18T00:56:48;80.30;;;27.00;;
70228;SDS011;57617;51.988;5.854;2022-12-18T00:59:13;78.77;;;25.07;;
70228;SDS011;57617;51.988;5.854;2022-12-18T01:01:38;74.43;;;24.80;;
70228;SDS011;57617;51.988;5.854;2022-12-18T01:04:04;70.13;;;23.33;;
70228;SDS011;57617;51.988;5.854;2022-12-18T01:06:29;69.60;;;23.97;;
70228;SDS011;57617;51.988;5.854;2022-12-18T01:08:54;65.00;;;23.97;;
70228;SDS011;57617;51.988;5.854;2022-12-18T01:11:20;70.67;;;24.87;;
70228;SDS011;57617;51.988;5.854;2022-12-18T01:13:46;67.40;;;23.90;;
70228;SDS011;57617;51.988;5.854;2022-12-18T01:16:12;72.43;;;24.17;;
70228;SDS011;57617;51.988;5.854;2022-12-18T01:18:39;63.73;;;22.80;;
70228;SDS011;57617;51.988;5.854;2022-12-18T01:21:08;69.17;;;24.00;;
70228;SDS011;57617;51.988;5.854;2022-12-18T01:23:36;60.27;;;23.20;;
70228;SDS011;57617;51.988;5.854;2022-12-18T01:26:09;69.37;;;23.97;;
70228;SDS011;57617;51.988;5.854;2022-12-18T01:28:36;67.47;;;22.63;;
70228;SDS011;57617;51.988;5.854;2022-12-18T01:33:43;56.93;;;21.17;;
70228;SDS011;57617;51.988;5.854;2022-12-18T01:36:13;57.47;;;21.33;;
70228;SDS011;57617;51.988;5.854;2022-12-18T01:38:40;61.97;;;21.77;;
70228;SDS011;57617;51.988;5.854;2022-12-18T01:41:05;58.93;;;21.63;;
70228;SDS011;57617;51.988;5.854;2022-12-18T01:46:21;59.77;;;21.30;;
70228;SDS011;57617;51.988;5.854;2022-12-18T01:48:49;55.70;;;20.50;;
70228;SDS011;57617;51.988;5.854;2022-12-18T01:51:20;61.73;;;21.30;;
70228;SDS011;57617;51.988;5.854;2022-12-18T01:53:46;54.33;;;21.20;;
70228;SDS011;57617;51.988;5.854;2022-12-18T01:56:13;59.37;;;21.23;;
70228;SDS011;57617;51.988;5.854;2022-12-18T01:58:43;57.23;;;21.77;;
70228;SDS011;57617;51.988;5.854;2022-12-18T02:01:10;58.30;;;21.93;;
70228;SDS011;57617;51.988;5.854;2022-12-18T02:03:35;61.93;;;23.90;;
70228;SDS011;57617;51.988;5.854;2022-12-18T02:11:52;55.63;;;20.70;;
70228;SDS011;57617;51.988;5.854;2022-12-18T02:17:18;58.00;;;21.47;;
70228;SDS011;57617;51.988;5.854;2022-12-18T02:27:51;54.80;;;20.10;;
70228;SDS011;57617;51.988;5.854;2022-12-18T02:30:19;64.63;;;20.40;;
70228;SDS011;57617;51.988;5.854;2022-12-18T02:32:47;50.53;;;19.60;;
70228;SDS011;57617;51.988;5.854;2022-12-18T02:35:16;53.03;;;20.27;;
70228;SDS011;57617;51.988;5.854;2022-12-18T02:37:47;52.33;;;18.80;;
70228;SDS011;57617;51.988;5.854;2022-12-18T02:40:13;57.53;;;20.87;;
70228;SDS011;57617;51.988;5.854;2022-12-18T02:42:40;59.57;;;19.23;;
70228;SDS011;57617;51.988;5.854;2022-12-18T02:45:06;51.83;;;19.17;;
70228;SDS011;57617;51.988;5.854;2022-12-18T02:47:32;50.50;;;18.63;;
70228;SDS011;57617;51.988;5.854;2022-12-18T02:50:19;46.43;;;18.23;;
70228;SDS011;57617;51.988;5.854;2022-12-18T02:53:17;50.53;;;18.67;;
70228;SDS011;57617;51.988;5.854;2022-12-18T03:01:19;50.07;;;18.53;;
70228;SDS011;57617;51.988;5.854;2022-12-18T03:06:23;50.50;;;18.30;;
70228;SDS011;57617;51.988;5.854;2022-12-18T03:08:56;56.03;;;18.67;;
70228;SDS011;57617;51.988;5.854;2022-12-18T03:11:24;46.13;;;17.87;;
70228;SDS011;57617;51.988;5.854;2022-12-18T03:14:11;50.77;;;17.67;;
70228;SDS011;57617;51.988;5.854;2022-12-18T03:16:41;50.73;;;18.10;;
70228;SDS011;57617;51.988;5.854;2022-12-18T03:19:14;42.50;;;16.00;;
70228;SDS011;57617;51.988;5.854;2022-12-18T03:21:45;43.10;;;16.83;;
70228;SDS011;57617;51.988;5.854;2022-12-18T03:24:14;45.80;;;17.37;;
70228;SDS011;57617;51.988;5.854;2022-12-18T03:26:43;44.30;;;17.90;;
70228;SDS011;57617;51.988;5.854;2022-12-18T03:29:16;45.60;;;18.30;;
70228;SDS011;57617;51.988;5.854;2022-12-18T03:31:49;54.27;;;21.80;;
70228;SDS011;57617;51.988;5.854;2022-12-18T03:34:23;57.57;;;22.50;;
70228;SDS011;57617;51.988;5.854;2022-12-18T03:36:54;53.37;;;22.30;;
70228;SDS011;57617;51.988;5.854;2022-12-18T03:39:19;51.60;;;21.60;;
70228;SDS011;57617;51.988;5.854;2022-12-18T03:41:52;51.30;;;20.03;;
70228;SDS011;57617;51.988;5.854;2022-12-18T03:47:26;45.47;;;18.83;;
70228;SDS011;57617;51.988;5.854;2022-12-18T03:52:28;44.73;;;17.80;;
70228;SDS011;57617;51.988;5.854;2022-12-18T03:54:59;47.47;;;17.77;;
70228;SDS011;57617;51.988;5.854;2022-12-18T03:57:27;45.00;;;17.83;;
70228;SDS011;57617;51.988;5.854;2022-12-18T03:59:56;43.03;;;16.70;;
70228;SDS011;57617;51.988;5.854;2022-12-18T04:02:25;45.63;;;16.40;;
70228;SDS011;57617;51.988;5.854;2022-12-18T04:04:52;41.07;;;16.10;;
70228;SDS011;57617;51.988;5.854;2022-12-18T04:07:21;43.20;;;17.03;;
70228;SDS011;57617;51.988;5.854;2022-12-18T04:09:48;43.20;;;16.07;;
70228;SDS011;57617;51.988;5.854;2022-12-18T04:12:15;43.67;;;17.07;;
70228;SDS011;57617;51.988;5.854;2022-12-18T04:14:40;42.33;;;16.27;;
70228;SDS011;57617;51.988;5.854;2022-12-18T04:17:05;43.03;;;16.07;;
70228;SDS011;57617;51.988;5.854;2022-12-18T04:19:31;42.87;;;16.30;;
70228;SDS011;57617;51.988;5.854;2022-12-18T04:21:56;37.93;;;15.30;;
70228;SDS011;57617;51.988;5.854;2022-12-18T04:24:21;38.17;;;14.70;;
70228;SDS011;57617;51.988;5.854;2022-12-18T04:26:47;42.60;;;15.37;;
70228;SDS011;57617;51.988;5.854;2022-12-18T04:29:12;39.30;;;15.07;;
70228;SDS011;57617;51.988;5.854;2022-12-18T04:31:37;39.90;;;15.47;;
70228;SDS011;57617;51.988;5.854;2022-12-18T04:34:03;38.10;;;15.27;;
70228;SDS011;57617;51.988;5.854;2022-12-18T04:36:28;39.33;;;15.50;;
70228;SDS011;57617;51.988;5.854;2022-12-18T04:38:54;41.33;;;15.47;;
70228;SDS011;57617;51.988;5.854;2022-12-18T04:41:19;41.43;;;16.33;;
70228;SDS011;57617;51.988;5.854;2022-12-18T04:43:45;40.87;;;15.30;;
70228;SDS011;57617;51.988;5.854;2022-12-18T04:46:10;38.30;;;14.30;;
70228;SDS011;57617;51.988;5.854;2022-12-18T04:48:35;36.67;;;14.00;;
70228;SDS011;57617;51.988;5.854;2022-12-18T04:51:01;34.00;;;13.60;;
70228;SDS011;57617;51.988;5.854;2022-12-18T04:53:27;34.07;;;13.33;;
70228;SDS011;57617;51.988;5.854;2022-12-18T04:58:47;36.13;;;13.67;;
70228;SDS011;57617;51.988;5.854;2022-12-18T05:01:13;35.10;;;14.67;;
70228;SDS011;57617;51.988;5.854;2022-12-18T05:03:40;36.37;;;14.00;;
70228;SDS011;57617;51.988;5.854;2022-12-18T05:06:05;34.73;;;14.03;;
70228;SDS011;57617;51.988;5.854;2022-12-18T05:08:32;35.97;;;14.70;;
70228;SDS011;57617;51.988;5.854;2022-12-18T05:11:01;35.27;;;14.07;;
70228;SDS011;57617;51.988;5.854;2022-12-18T05:13:28;32.93;;;14.33;;
70228;SDS011;57617;51.988;5.854;2022-12-18T05:15:53;32.60;;;13.57;;
70228;SDS011;57617;51.988;5.854;2022-12-18T05:18:19;38.37;;;14.17;;
70228;SDS011;57617;51.988;5.854;2022-12-18T05:20:44;34.00;;;14.03;;
70228;SDS011;57617;51.988;5.854;2022-12-18T05:23:10;43.03;;;13.63;;
70228;SDS011;57617;51.988;5.854;2022-12-18T05:25:35;36.10;;;13.67;;
70228;SDS011;57617;51.988;5.854;2022-12-18T05:28:00;32.90;;;13.10;;
70228;SDS011;57617;51.988;5.854;2022-12-18T05:30:25;32.07;;;13.77;;
70228;SDS011;57617;51.988;5.854;2022-12-18T05:32:51;33.50;;;13.10;;
70228;SDS011;57617;51.988;5.854;2022-12-18T05:35:16;31.03;;;13.33;;
70228;SDS011;57617;51.988;5.854;2022-12-18T05:37:41;34.40;;;13.93;;
70228;SDS011;57617;51.988;5.854;2022-12-18T05:40:07;38.93;;;14.13;;
70228;SDS011;57617;51.988;5.854;2022-12-18T05:42:33;33.03;;;13.53;;
70228;SDS011;57617;51.988;5.854;2022-12-18T05:44:58;34.90;;;13.67;;
70228;SDS011;57617;51.988;5.854;2022-12-18T05:47:23;36.00;;;14.03;;
70228;SDS011;57617;51.988;5.854;2022-12-18T05:49:49;30.43;;;13.47;;
70228;SDS011;57617;51.988;5.854;2022-12-18T05:52:14;33.80;;;13.53;;
70228;SDS011;57617;51.988;5.854;2022-12-18T05:54:39;34.13;;;14.27;;
70228;SDS011;57617;51.988;5.854;2022-12-18T05:57:05;29.80;;;12.60;;
70228;SDS011;57617;51.988;5.854;2022-12-18T05:59:30;30.27;;;13.40;;
70228;SDS011;57617;51.988;5.854;2022-12-18T06:01:55;32.60;;;13.77;;
70228;SDS011;57617;51.988;5.854;2022-12-18T06:04:21;31.67;;;13.20;;
70228;SDS011;57617;51.988;5.854;2022-12-18T06:06:46;31.63;;;13.47;;
70228;SDS011;57617;51.988;5.854;2022-12-18T06:09:11;34.57;;;13.03;;
70228;SDS011;57617;51.988;5.854;2022-12-18T06:11:37;29.33;;;12.50;;
70228;SDS011;57617;51.988;5.854;2022-12-18T06:14:03;29.80;;;13.00;;
70228;SDS011;57617;51.988;5.854;2022-12-18T06:16:30;30.83;;;13.90;;
70228;SDS011;57617;51.988;5.854;2022-12-18T06:18:56;32.73;;;14.20;;
70228;SDS011;57617;51.988;5.854;2022-12-18T06:21:25;32.10;;;13.73;;
70228;SDS011;57617;51.988;5.854;2022-12-18T06:23:51;34.90;;;13.87;;
70228;SDS011;57617;51.988;5.854;2022-12-18T06:26:16;35.70;;;15.63;;
70228;SDS011;57617;51.988;5.854;2022-12-18T06:28:41;33.33;;;13.87;;
70228;SDS011;57617;51.988;5.854;2022-12-18T06:31:07;31.73;;;13.50;;
70228;SDS011;57617;51.988;5.854;2022-12-18T06:33:33;35.17;;;14.10;;
70228;SDS011;57617;51.988;5.854;2022-12-18T06:36:00;29.90;;;13.07;;
70228;SDS011;57617;51.988;5.854;2022-12-18T06:38:27;28.37;;;12.97;;
70228;SDS011;57617;51.988;5.854;2022-12-18T06:40:52;31.57;;;12.53;;
70228;SDS011;57617;51.988;5.854;2022-12-18T06:43:18;33.27;;;13.27;;
70228;SDS011;57617;51.988;5.854;2022-12-18T06:45:43;36.53;;;13.77;;
70228;SDS011;57617;51.988;5.854;2022-12-18T06:48:08;31.57;;;13.00;;
70228;SDS011;57617;51.988;5.854;2022-12-18T06:50:34;31.73;;;13.60;;
70228;SDS011;57617;51.988;5.854;2022-12-18T06:52:59;31.13;;;12.77;;
70228;SDS011;57617;51.988;5.854;2022-12-18T06:55:24;30.20;;;13.03;;
70228;SDS011;57617;51.988;5.854;2022-12-18T06:57:50;30.73;;;12.93;;
70228;SDS011;57617;51.988;5.854;2022-12-18T07:00:15;32.30;;;13.53;;
70228;SDS011;57617;51.988;5.854;2022-12-18T07:02:41;33.13;;;13.23;;
70228;SDS011;57617;51.988;5.854;2022-12-18T07:05:06;40.57;;;13.90;;
70228;SDS011;57617;51.988;5.854;2022-12-18T07:07:33;31.30;;;13.20;;
70228;SDS011;57617;51.988;5.854;2022-12-18T07:09:59;31.77;;;13.23;;
70228;SDS011;57617;51.988;5.854;2022-12-18T07:12:24;33.03;;;13.60;;
70228;SDS011;57617;51.988;5.854;2022-12-18T07:14:51;33.90;;;13.90;;
70228;SDS011;57617;51.988;5.854;2022-12-18T07:17:17;32.57;;;14.23;;
70228;SDS011;57617;51.988;5.854;2022-12-18T07:19:42;33.93;;;13.50;;
70228;SDS011;57617;51.988;5.854;2022-12-18T07:22:07;31.80;;;12.67;;
70228;SDS011;57617;51.988;5.854;2022-12-18T07:24:33;31.17;;;13.47;;
70228;SDS011;57617;51.988;5.854;2022-12-18T07:26:59;31.87;;;12.37;;
70228;SDS011;57617;51.988;5.854;2022-12-18T07:29:24;31.43;;;13.10;;
70228;SDS011;57617;51.988;5.854;2022-12-18T07:31:49;30.43;;;13.53;;
70228;SDS011;57617;51.988;5.854;2022-12-18T07:34:15;31.10;;;12.73;;
70228;SDS011;57617;51.988;5.854;2022-12-18T07:36:40;25.87;;;11.97;;
70228;SDS011;57617;51.988;5.854;2022-12-18T07:39:05;31.87;;;12.40;;
70228;SDS011;57617;51.988;5.854;2022-12-18T07:41:31;29.13;;;12.97;;
70228;SDS011;57617;51.988;5.854;2022-12-18T07:43:56;29.37;;;12.30;;
70228;SDS011;57617;51.988;5.854;2022-12-18T07:46:21;28.60;;;11.93;;
70228;SDS011;57617;51.988;5.854;2022-12-18T07:48:47;30.03;;;11.73;;
70228;SDS011;57617;51.988;5.854;2022-12-18T07:51:12;25.10;;;11.23;;
70228;SDS011;57617;51.988;5.854;2022-12-18T07:53:38;28.50;;;12.47;;
70228;SDS011;57617;51.988;5.854;2022-12-18T07:56:07;28.37;;;11.23;;
70228;SDS011;57617;51.988;5.854;2022-12-18T07:58:35;29.87;;;12.00;;
70228;SDS011;57617;51.988;5.854;2022-12-18T08:01:11;27.40;;;11.20;;
70228;SDS011;57617;51.988;5.854;2022-12-18T08:03:37;28.60;;;11.57;;
70228;SDS011;57617;51.988;5.854;2022-12-18T08:06:05;30.63;;;11.70;;
70228;SDS011;57617;51.988;5.854;2022-12-18T08:08:31;28.87;;;11.90;;
70228;SDS011;57617;51.988;5.854;2022-12-18T08:10:57;28.63;;;11.73;;
70228;SDS011;57617;51.988;5.854;2022-12-18T08:13:23;29.57;;;11.40;;
70228;SDS011;57617;51.988;5.854;2022-12-18T08:15:55;27.20;;;10.43;;
70228;SDS011;57617;51.988;5.854;2022-12-18T08:18:39;29.93;;;11.50;;
70228;SDS011;57617;51.988;5.854;2022-12-18T08:21:11;23.90;;;10.37;;
70228;SDS011;57617;51.988;5.854;2022-12-18T08:23:38;27.67;;;10.30;;
70228;SDS011;57617;51.988;5.854;2022-12-18T08:26:03;39.97;;;11.47;;
70228;SDS011;57617;51.988;5.854;2022-12-18T08:28:29;26.73;;;11.13;;
70228;SDS011;57617;51.988;5.854;2022-12-18T08:30:54;23.50;;;10.63;;
70228;SDS011;57617;51.988;5.854;2022-12-18T08:33:20;27.67;;;10.87;;
70228;SDS011;57617;51.988;5.854;2022-12-18T08:35:45;23.63;;;10.07;;
70228;SDS011;57617;51.988;5.854;2022-12-18T08:38:10;22.60;;;9.63;;
70228;SDS011;57617;51.988;5.854;2022-12-18T08:40:35;21.00;;;9.90;;
70228;SDS011;57617;51.988;5.854;2022-12-18T08:43:01;23.13;;;10.30;;
70228;SDS011;57617;51.988;5.854;2022-12-18T08:45:45;26.07;;;11.07;;
70228;SDS011;57617;51.988;5.854;2022-12-18T08:48:10;29.57;;;12.03;;
70228;SDS011;57617;51.988;5.854;2022-12-18T08:50:35;22.83;;;9.80;;
70228;SDS011;57617;51.988;5.854;2022-12-18T08:53:01;24.97;;;10.13;;
70228;SDS011;57617;51.988;5.854;2022-12-18T08:55:26;25.13;;;9.33;;
70228;SDS011;57617;51.988;5.854;2022-12-18T08:57:51;22.27;;;9.77;;
70228;SDS011;57617;51.988;5.854;2022-12-18T09:00:17;23.53;;;10.23;;
70228;SDS011;57617;51.988;5.854;2022-12-18T09:02:42;23.53;;;9.60;;
70228;SDS011;57617;51.988;5.854;2022-12-18T09:05:08;22.53;;;9.17;;
70228;SDS011;57617;51.988;5.854;2022-12-18T09:07:33;21.43;;;9.37;;
70228;SDS011;57617;51.988;5.854;2022-12-18T09:09:59;21.77;;;9.03;;
70228;SDS011;57617;51.988;5.854;2022-12-18T09:12:24;23.80;;;9.23;;
70228;SDS011;57617;51.988;5.854;2022-12-18T09:14:50;24.47;;;9.40;;
70228;SDS011;57617;51.988;5.854;2022-12-18T09:17:15;26.70;;;9.43;;
70228;SDS011;57617;51.988;5.854;2022-12-18T09:19:40;26.80;;;9.50;;
70228;SDS011;57617;51.988;5.854;2022-12-18T09:22:06;23.97;;;9.83;;
70228;SDS011;57617;51.988;5.854;2022-12-18T09:24:31;21.23;;;9.47;;
70228;SDS011;57617;51.988;5.854;2022-12-18T09:26:56;23.30;;;9.50;;
70228;SDS011;57617;51.988;5.854;2022-12-18T09:29:21;20.73;;;9.00;;
70228;SDS011;57617;51.988;5.854;2022-12-18T09:31:47;25.60;;;10.70;;
70228;SDS011;57617;51.988;5.854;2022-12-18T09:34:13;22.47;;;8.87;;
70228;SDS011;57617;51.988;5.854;2022-12-18T09:36:38;21.47;;;9.50;;
70228;SDS011;57617;51.988;5.854;2022-12-18T09:39:03;22.63;;;9.67;;
70228;SDS011;57617;51.988;5.854;2022-12-18T09:44:01;23.00;;;9.57;;
70228;SDS011;57617;51.988;5.854;2022-12-18T09:46:36;21.03;;;9.13;;
70228;SDS011;57617;51.988;5.854;2022-12-18T09:49:11;22.73;;;9.30;;
70228;SDS011;57617;51.988;5.854;2022-12-18T09:51:39;20.83;;;9.10;;
70228;SDS011;57617;51.988;5.854;2022-12-18T09:54:31;21.43;;;9.10;;
70228;SDS011;57617;51.988;5.854;2022-12-18T09:57:00;23.20;;;9.73;;
70228;SDS011;57617;51.988;5.854;2022-12-18T09:59:36;20.43;;;8.77;;
70228;SDS011;57617;51.988;5.854;2022-12-18T10:02:14;30.57;;;13.47;;
70228;SDS011;57617;51.988;5.854;2022-12-18T10:04:42;30.03;;;15.23;;
70228;SDS011;57617;51.988;5.854;2022-12-18T10:12:19;24.27;;;10.80;;
70228;SDS011;57617;51.988;5.854;2022-12-18T10:14:54;22.77;;;9.87;;
70228;SDS011;57617;51.988;5.854;2022-12-18T10:20:15;30.00;;;13.10;;
70228;SDS011;57617;51.988;5.854;2022-12-18T10:25:47;22.83;;;10.30;;
70228;SDS011;57617;51.988;5.854;2022-12-18T10:28:19;24.37;;;10.00;;
70228;SDS011;57617;51.988;5.854;2022-12-18T10:30:45;21.67;;;9.57;;
70228;SDS011;57617;51.988;5.854;2022-12-18T10:33:14;20.90;;;9.30;;
70228;SDS011;57617;51.988;5.854;2022-12-18T10:35:42;19.90;;;9.13;;
70228;SDS011;57617;51.988;5.854;2022-12-18T10:40:59;21.83;;;9.53;;
70228;SDS011;57617;51.988;5.854;2022-12-18T10:43:30;22.57;;;9.33;;
70228;SDS011;57617;51.988;5.854;2022-12-18T10:45:59;29.17;;;12.40;;
70228;SDS011;57617;51.988;5.854;2022-12-18T10:51:20;21.37;;;9.90;;
70228;SDS011;57617;51.988;5.854;2022-12-18T10:56:20;22.93;;;10.10;;
70228;SDS011;57617;51.988;5.854;2022-12-18T10:58:54;24.00;;;11.20;;
70228;SDS011;57617;51.988;5.854;2022-12-18T11:01:22;24.77;;;10.63;;
70228;SDS011;57617;51.988;5.854;2022-12-18T11:06:16;22.40;;;9.87;;
70228;SDS011;57617;51.988;5.854;2022-12-18T11:08:46;24.07;;;9.50;;
70228;SDS011;57617;51.988;5.854;2022-12-18T11:11:23;25.07;;;10.47;;
70228;SDS011;57617;51.988;5.854;2022-12-18T11:14:06;23.30;;;10.97;;
70228;SDS011;57617;51.988;5.854;2022-12-18T11:16:45;21.90;;;10.40;;
70228;SDS011;57617;51.988;5.854;2022-12-18T11:21:40;23.63;;;10.30;;
70228;SDS011;57617;51.988;5.854;2022-12-18T11:24:07;27.40;;;12.97;;
70228;SDS011;57617;51.988;5.854;2022-12-18T11:26:44;23.83;;;10.40;;
70228;SDS011;57617;51.988;5.854;2022-12-18T11:29:10;24.40;;;10.10;;
70228;SDS011;57617;51.988;5.854;2022-12-18T11:31:42;23.27;;;10.20;;
70228;SDS011;57617;51.988;5.854;2022-12-18T11:34:16;22.97;;;10.10;;
70228;SDS011;57617;51.988;5.854;2022-12-18T11:36:50;23.53;;;11.00;;
70228;SDS011;57617;51.988;5.854;2022-12-18T11:39:18;22.70;;;10.53;;
70228;SDS011;57617;51.988;5.854;2022-12-18T11:41:59;26.60;;;10.57;;
70228;SDS011;57617;51.988;5.854;2022-12-18T11:44:44;22.53;;;9.83;;
70228;SDS011;57617;51.988;5.854;2022-12-18T11:49:42;25.97;;;10.30;;
70228;SDS011;57617;51.988;5.854;2022-12-18T11:52:09;41.87;;;15.60;;
70228;SDS011;57617;51.988;5.854;2022-12-18T11:54:52;27.80;;;12.27;;
70228;SDS011;57617;51.988;5.854;2022-12-18T11:57:29;22.97;;;10.30;;
70228;SDS011;57617;51.988;5.854;2022-12-18T11:59:59;26.03;;;11.77;;
70228;SDS011;57617;51.988;5.854;2022-12-18T12:02:40;26.40;;;11.37;;
70228;SDS011;57617;51.988;5.854;2022-12-18T12:07:47;22.53;;;10.97;;
70228;SDS011;57617;51.988;5.854;2022-12-18T12:13:18;29.03;;;12.43;;
70228;SDS011;57617;51.988;5.854;2022-12-18T12:19:06;25.93;;;10.57;;
70228;SDS011;57617;51.988;5.854;2022-12-18T12:21:49;26.13;;;11.20;;
70228;SDS011;57617;51.988;5.854;2022-12-18T12:24:36;30.80;;;12.00;;
70228;SDS011;57617;51.988;5.854;2022-12-18T12:30:00;25.73;;;11.97;;
70228;SDS011;57617;51.988;5.854;2022-12-18T12:35:25;25.60;;;11.67;;
70228;SDS011;57617;51.988;5.854;2022-12-18T12:38:22;30.07;;;12.50;;
70228;SDS011;57617;51.988;5.854;2022-12-18T12:40:54;29.27;;;12.87;;
70228;SDS011;57617;51.988;5.854;2022-12-18T12:43:25;30.07;;;12.67;;
70228;SDS011;57617;51.988;5.854;2022-12-18T12:51:28;25.63;;;11.20;;
70228;SDS011;57617;51.988;5.854;2022-12-18T12:53:56;27.43;;;11.33;;
70228;SDS011;57617;51.988;5.854;2022-12-18T12:56:23;25.17;;;11.40;;
70228;SDS011;57617;51.988;5.854;2022-12-18T12:59:04;26.23;;;11.97;;
70228;SDS011;57617;51.988;5.854;2022-12-18T13:01:40;29.80;;;13.03;;
70228;SDS011;57617;51.988;5.854;2022-12-18T13:04:27;28.57;;;12.53;;
70228;SDS011;57617;51.988;5.854;2022-12-18T13:07:15;25.53;;;11.23;;
70228;SDS011;57617;51.988;5.854;2022-12-18T13:12:37;26.03;;;11.40;;
70228;SDS011;57617;51.988;5.854;2022-12-18T13:15:24;25.73;;;10.87;;
70228;SDS011;57617;51.988;5.854;2022-12-18T13:21:17;29.80;;;12.80;;
70228;SDS011;57617;51.988;5.854;2022-12-18T13:31:11;24.40;;;10.80;;
70228;SDS011;57617;51.988;5.854;2022-12-18T13:33:38;24.60;;;11.00;;
70228;SDS011;57617;51.988;5.854;2022-12-18T13:36:29;23.50;;;11.00;;
70228;SDS011;57617;51.988;5.854;2022-12-18T13:41:38;24.63;;;11.57;;
70228;SDS011;57617;51.988;5.854;2022-12-18T13:47:00;26.43;;;11.23;;
70228;SDS011;57617;51.988;5.854;2022-12-18T13:52:16;31.47;;;12.37;;
70228;SDS011;57617;51.988;5.854;2022-12-18T13:54:45;27.20;;;11.17;;
70228;SDS011;57617;51.988;5.854;2022-12-18T14:02:44;24.80;;;11.43;;
70228;SDS011;57617;51.988;5.854;2022-12-18T14:05:21;28.63;;;11.80;;
70228;SDS011;57617;51.988;5.854;2022-12-18T14:07:46;28.87;;;11.93;;
70228;SDS011;57617;51.988;5.854;2022-12-18T14:10:12;27.67;;;10.50;;
70228;SDS011;57617;51.988;5.854;2022-12-18T14:12:40;26.00;;;11.37;;
70228;SDS011;57617;51.988;5.854;2022-12-18T14:17:55;29.13;;;12.33;;
70228;SDS011;57617;51.988;5.854;2022-12-18T14:20:27;28.80;;;12.13;;
70228;SDS011;57617;51.988;5.854;2022-12-18T14:22:56;34.80;;;13.37;;
70228;SDS011;57617;51.988;5.854;2022-12-18T14:25:23;27.60;;;12.20;;
70228;SDS011;57617;51.988;5.854;2022-12-18T14:27:57;26.23;;;12.00;;
70228;SDS011;57617;51.988;5.854;2022-12-18T14:30:31;37.00;;;14.80;;
70228;SDS011;57617;51.988;5.854;2022-12-18T14:33:04;31.27;;;12.70;;
70228;SDS011;57617;51.988;5.854;2022-12-18T14:35:29;27.63;;;12.47;;
70228;SDS011;57617;51.988;5.854;2022-12-18T14:38:09;34.13;;;14.60;;
70228;SDS011;57617;51.988;5.854;2022-12-18T14:40:34;30.03;;;12.80;;
70228;SDS011;57617;51.988;5.854;2022-12-18T14:43:00;29.47;;;12.33;;
70228;SDS011;57617;51.988;5.854;2022-12-18T14:45:38;35.67;;;11.97;;
70228;SDS011;57617;51.988;5.854;2022-12-18T14:48:16;30.57;;;12.30;;
70228;SDS011;57617;51.988;5.854;2022-12-18T14:50:43;28.60;;;12.40;;
70228;SDS011;57617;51.988;5.854;2022-12-18T14:53:23;33.87;;;14.23;;
70228;SDS011;57617;51.988;5.854;2022-12-18T14:56:03;29.67;;;12.13;;
70228;SDS011;57617;51.988;5.854;2022-12-18T14:58:38;28.97;;;12.23;;
70228;SDS011;57617;51.988;5.854;2022-12-18T15:01:04;32.33;;;13.50;;
70228;SDS011;57617;51.988;5.854;2022-12-18T15:03:30;29.87;;;12.53;;
70228;SDS011;57617;51.988;5.854;2022-12-18T15:05:55;61.97;;;23.07;;
70228;SDS011;57617;51.988;5.854;2022-12-18T15:08:31;32.13;;;12.70;;
70228;SDS011;57617;51.988;5.854;2022-12-18T15:11:00;26.63;;;12.40;;
70228;SDS011;57617;51.988;5.854;2022-12-18T15:13:26;33.43;;;13.07;;
70228;SDS011;57617;51.988;5.854;2022-12-18T15:16:00;35.70;;;13.70;;
70228;SDS011;57617;51.988;5.854;2022-12-18T15:18:30;32.20;;;12.98;;
70228;SDS011;57617;51.988;5.854;2022-12-18T15:21:09;35.60;;;16.20;;
70228;SDS011;57617;51.988;5.854;2022-12-18T15:23:37;44.70;;;17.57;;
70228;SDS011;57617;51.988;5.854;2022-12-18T15:26:12;51.20;;;23.23;;
70228;SDS011;57617;51.988;5.854;2022-12-18T15:33:39;38.87;;;17.53;;
70228;SDS011;57617;51.988;5.854;2022-12-18T15:36:10;33.67;;;16.40;;
70228;SDS011;57617;51.988;5.854;2022-12-18T15:38:40;42.90;;;19.33;;
70228;SDS011;57617;51.988;5.854;2022-12-18T15:41:05;37.77;;;16.43;;
70228;SDS011;57617;51.988;5.854;2022-12-18T15:43:34;42.23;;;17.20;;
70228;SDS011;57617;51.988;5.854;2022-12-18T15:46:06;47.57;;;18.73;;
70228;SDS011;57617;51.988;5.854;2022-12-18T15:48:38;37.50;;;16.10;;
70228;SDS011;57617;51.988;5.854;2022-12-18T15:51:13;30.07;;;12.73;;
70228;SDS011;57617;51.988;5.854;2022-12-18T15:53:41;28.93;;;12.83;;
70228;SDS011;57617;51.988;5.854;2022-12-18T15:56:11;27.07;;;11.70;;
70228;SDS011;57617;51.988;5.854;2022-12-18T15:58:56;33.63;;;13.60;;
70228;SDS011;57617;51.988;5.854;2022-12-18T16:01:22;33.63;;;14.17;;
70228;SDS011;57617;51.988;5.854;2022-12-18T16:03:48;28.67;;;13.07;;
70228;SDS011;57617;51.988;5.854;2022-12-18T16:06:14;32.20;;;12.60;;
70228;SDS011;57617;51.988;5.854;2022-12-18T16:08:39;33.93;;;13.27;;
70228;SDS011;57617;51.988;5.854;2022-12-18T16:11:04;34.97;;;13.27;;
70228;SDS011;57617;51.988;5.854;2022-12-18T16:13:33;32.47;;;14.13;;
70228;SDS011;57617;51.988;5.854;2022-12-18T16:15:58;29.00;;;12.97;;
70228;SDS011;57617;51.988;5.854;2022-12-18T16:18:24;29.17;;;12.20;;
70228;SDS011;57617;51.988;5.854;2022-12-18T16:20:49;31.97;;;13.63;;
70228;SDS011;57617;51.988;5.854;2022-12-18T16:23:14;33.20;;;14.03;;
70228;SDS011;57617;51.988;5.854;2022-12-18T16:25:40;35.97;;;14.40;;
70228;SDS011;57617;51.988;5.854;2022-12-18T16:28:05;35.87;;;14.37;;
70228;SDS011;57617;51.988;5.854;2022-12-18T16:30:30;33.97;;;14.53;;
70228;SDS011;57617;51.988;5.854;2022-12-18T16:32:57;34.17;;;15.10;;
70228;SDS011;57617;51.988;5.854;2022-12-18T16:35:23;34.93;;;13.87;;